createdAt,value
2022-11-06T00:03:24.727Z,12.03
2022-11-06T00:08:33.131Z,10.73
2022-11-06T00:13:26.769Z,10.90
2022-11-06T00:18:20.262Z,14.37
2022-11-06T00:23:13.566Z,33.77
2022-11-06T00:28:08.305Z,24.47
2022-11-06T00:33:01.560Z,16.87
2022-11-06T00:37:54.862Z,20.80
2022-11-06T00:42:48.197Z,14.80
2022-11-06T00:47:42.886Z,22.90
2022-11-06T00:52:36.187Z,31.03
2022-11-06T00:57:29.891Z,20.20
2022-11-06T01:02:23.304Z,23.03
2022-11-06T01:07:17.955Z,41.40
2022-11-06T01:12:13.441Z,18.10
2022-11-06T01:17:07.446Z,26.33
2022-11-06T01:22:00.757Z,17.33
2022-11-06T01:32:09.573Z,37.90
2022-11-06T01:37:03.063Z,60.53
2022-11-06T01:41:57.859Z,16.80
2022-11-06T01:46:51.195Z,26.10
2022-11-06T01:51:50.273Z,25.57
2022-11-06T01:56:47.175Z,23.10
2022-11-06T02:01:42.172Z,19.87
2022-11-06T02:06:36.007Z,57.00
2022-11-06T02:11:30.190Z,43.47
2022-11-06T02:16:38.765Z,26.93
2022-11-06T02:22:08.702Z,24.97
2022-11-06T02:27:12.567Z,14.43
2022-11-06T02:32:13.159Z,18.93
2022-11-06T02:37:13.623Z,15.63
2022-11-06T02:42:11.962Z,26.07
2022-11-06T02:47:10.834Z,16.27
2022-11-06T02:52:11.921Z,16.63
2022-11-06T02:57:15.631Z,18.03
2022-11-06T03:02:17.635Z,20.03
2022-11-06T03:07:21.119Z,16.23
2022-11-06T03:12:26.500Z,16.67
2022-11-06T03:17:30.470Z,15.53
2022-11-06T03:22:34.442Z,16.27
2022-11-06T03:27:36.983Z,17.40
2022-11-06T03:32:36.684Z,22.53
2022-11-06T03:37:37.242Z,18.10
2022-11-06T03:42:33.566Z,17.40
2022-11-06T03:47:33.772Z,19.03
2022-11-06T03:52:36.928Z,18.87
2022-11-06T03:57:42.582Z,19.50
2022-11-06T04:02:42.692Z,19.53
2022-11-06T04:07:42.598Z,19.80
2022-11-06T04:12:59.654Z,17.70
2022-11-06T04:17:53.284Z,18.03
2022-11-06T04:22:56.786Z,19.07
2022-11-06T04:28:10.022Z,18.97
2022-11-06T04:33:12.142Z,19.23
2022-11-06T04:38:15.806Z,17.97
2022-11-06T04:43:23.174Z,16.50
2022-11-06T04:48:19.302Z,18.90
2022-11-06T04:53:15.654Z,19.30
2022-11-06T04:58:11.179Z,17.50
2022-11-06T05:03:04.825Z,19.07
2022-11-06T05:07:58.051Z,18.63
2022-11-06T05:12:51.237Z,17.97
2022-11-06T05:17:45.902Z,18.47
2022-11-06T05:23:00.750Z,19.43
2022-11-06T05:27:54.210Z,16.97
2022-11-06T05:32:49.113Z,15.70
2022-11-06T05:37:42.362Z,13.30
2022-11-06T05:42:35.896Z,12.13
2022-11-06T05:47:29.226Z,14.50
2022-11-06T05:52:23.989Z,11.30
2022-11-06T05:57:17.290Z,10.43
2022-11-06T06:02:11.148Z,9.27
2022-11-06T06:07:04.562Z,8.50
2022-11-06T06:11:59.250Z,5.07
2022-11-06T06:16:52.526Z,6.33
2022-11-06T06:21:45.960Z,5.57
2022-11-06T06:26:39.152Z,5.50
2022-11-06T06:31:33.751Z,7.10
2022-11-06T06:36:26.998Z,6.73
2022-11-06T06:41:20.268Z,7.10
2022-11-06T06:46:13.482Z,6.17
2022-11-06T06:51:08.906Z,5.50
2022-11-06T06:56:02.959Z,4.97
2022-11-06T07:00:56.265Z,5.87
2022-11-06T07:05:49.608Z,6.97
2022-11-06T07:10:44.228Z,8.53
2022-11-06T07:15:37.509Z,7.10
2022-11-06T07:20:31.001Z,7.77
2022-11-06T07:25:24.254Z,7.43
2022-11-06T07:30:19.078Z,12.90
2022-11-06T07:35:12.705Z,8.60
2022-11-06T07:40:07.687Z,8.63
2022-11-06T07:45:00.950Z,7.43
2022-11-06T07:49:57.798Z,6.90
2022-11-06T07:54:51.160Z,7.10
2022-11-06T07:59:44.436Z,7.50
2022-11-06T08:04:37.657Z,6.80
2022-11-06T08:09:32.799Z,6.90
2022-11-06T08:14:26.448Z,7.23
2022-11-06T08:19:19.747Z,8.43
2022-11-06T08:24:17.635Z,5.47
2022-11-06T08:29:15.467Z,12.10
2022-11-06T08:34:09.130Z,4.80
2022-11-06T08:39:02.358Z,5.87
2022-11-06T08:43:55.672Z,5.90
2022-11-06T08:48:50.241Z,5.37
2022-11-06T08:53:43.575Z,4.60
2022-11-06T08:58:36.944Z,4.47
2022-11-06T09:03:30.287Z,4.33
2022-11-06T09:08:25.251Z,4.00
2022-11-06T09:13:18.650Z,9.17
2022-11-06T09:18:12.763Z,21.53
2022-11-06T09:23:09.279Z,4.60
2022-11-06T09:28:03.929Z,3.33
2022-11-06T09:33:00.159Z,5.63
2022-11-06T09:37:53.871Z,4.00
2022-11-06T09:43:09.377Z,4.30
2022-11-06T09:48:18.068Z,3.37
2022-11-06T09:53:21.186Z,3.83
2022-11-06T09:58:22.333Z,13.60
2022-11-06T10:03:23.227Z,3.33
2022-11-06T10:08:23.264Z,2.80
2022-11-06T10:13:51.713Z,2.57
2022-11-06T10:18:59.477Z,4.37
2022-11-06T10:23:59.407Z,3.27
2022-11-06T10:29:27.831Z,3.83
2022-11-06T10:34:28.988Z,3.53
2022-11-06T10:39:28.681Z,2.80
2022-11-06T10:44:29.183Z,19.63
2022-11-06T10:49:36.691Z,3.33
2022-11-06T10:54:52.218Z,4.00
2022-11-06T10:59:46.998Z,2.57
2022-11-06T11:04:40.993Z,4.03
2022-11-06T11:09:35.526Z,5.50
2022-11-06T11:14:31.871Z,4.00
2022-11-06T11:19:35.549Z,4.53
2022-11-06T11:24:29.880Z,3.97
2022-11-06T11:29:28.294Z,4.43
2022-11-06T11:34:26.997Z,4.03
2022-11-06T11:39:25.181Z,5.17
2022-11-06T11:44:20.836Z,4.27
2022-11-06T11:49:31.039Z,4.00
2022-11-06T11:54:27.817Z,4.77
2022-11-06T11:59:26.137Z,4.90
2022-11-06T12:04:27.085Z,4.20
2022-11-06T12:09:23.672Z,4.23
2022-11-06T12:14:38.803Z,4.60
2022-11-06T12:19:37.001Z,4.73
2022-11-06T12:24:44.565Z,5.10
2022-11-06T12:29:45.529Z,6.03
2022-11-06T12:34:46.721Z,5.57
2022-11-06T12:39:47.552Z,5.10
2022-11-06T12:44:40.987Z,6.03
2022-11-06T12:50:10.725Z,6.07
2022-11-06T12:55:24.895Z,5.27
2022-11-06T13:00:21.842Z,5.80
2022-11-06T13:05:21.421Z,6.13
2022-11-06T13:10:38.194Z,6.53
2022-11-06T13:15:42.113Z,6.17
2022-11-06T13:20:50.003Z,7.27
2022-11-06T13:25:56.919Z,7.07
2022-11-06T13:30:52.489Z,7.93
2022-11-06T13:35:47.967Z,8.43
2022-11-06T13:40:46.913Z,7.60
2022-11-06T13:45:53.279Z,9.37
2022-11-06T13:50:59.562Z,7.83
2022-11-06T13:56:10.730Z,8.07
2022-11-06T14:01:19.427Z,7.43
2022-11-06T14:06:20.107Z,10.50
2022-11-06T14:11:18.400Z,7.20
2022-11-06T14:16:32.009Z,9.00
2022-11-06T14:21:49.094Z,7.43
2022-11-06T14:26:46.670Z,8.87
2022-11-06T14:32:03.392Z,8.27
2022-11-06T14:36:56.666Z,7.63
2022-11-06T14:42:01.208Z,7.10
2022-11-06T14:46:59.761Z,9.77
2022-11-06T14:52:02.647Z,8.40
2022-11-06T14:56:56.706Z,7.93
2022-11-06T15:02:03.594Z,7.67
2022-11-06T15:07:09.608Z,9.20
2022-11-06T15:12:05.325Z,7.33
2022-11-06T15:17:10.742Z,7.63
2022-11-06T15:22:16.846Z,8.33
2022-11-06T15:27:18.143Z,7.30
2022-11-06T15:32:18.018Z,7.50
2022-11-06T15:37:16.380Z,8.27
2022-11-06T15:42:15.255Z,10.97
2022-11-06T15:47:24.609Z,8.63
2022-11-06T15:52:19.704Z,7.80
2022-11-06T15:57:21.603Z,8.07
2022-11-06T16:02:19.157Z,8.37
2022-11-06T16:07:16.333Z,8.43
2022-11-06T16:12:14.613Z,11.17
2022-11-06T16:17:13.090Z,10.00
2022-11-06T16:22:12.028Z,9.73
2022-11-06T16:27:08.372Z,9.97
2022-11-06T16:32:06.945Z,9.57
2022-11-06T16:37:03.567Z,8.90
2022-11-06T16:42:25.765Z,8.40
2022-11-06T16:47:21.707Z,10.67
2022-11-06T16:52:26.744Z,9.20
2022-11-06T16:57:26.105Z,8.80
2022-11-06T17:02:26.185Z,9.10
2022-11-06T17:07:23.489Z,10.87
2022-11-06T17:12:16.794Z,13.77
2022-11-06T17:17:26.772Z,13.33
2022-11-06T17:22:20.142Z,10.93
2022-11-06T17:27:13.484Z,8.90
2022-11-06T17:32:06.916Z,10.13
2022-11-06T17:37:13.469Z,9.80
2022-11-06T17:42:06.803Z,11.17
2022-11-06T17:47:00.132Z,10.07
2022-11-06T17:51:59.994Z,10.27
2022-11-06T17:56:56.971Z,12.27
2022-11-06T18:01:50.827Z,9.70
2022-11-06T18:06:46.507Z,10.33
2022-11-06T18:11:39.807Z,10.67
2022-11-06T18:16:43.215Z,10.20
2022-11-06T18:21:37.826Z,9.97
2022-11-06T18:26:31.155Z,10.53
2022-11-06T18:31:37.672Z,10.53
2022-11-06T18:36:32.536Z,12.37
2022-11-06T18:41:25.830Z,16.53
2022-11-06T18:46:23.131Z,30.67
2022-11-06T18:51:33.521Z,15.10
2022-11-06T18:56:28.301Z,13.00
2022-11-06T19:01:23.188Z,11.33
2022-11-06T19:06:21.395Z,10.67
2022-11-06T19:11:17.745Z,11.80
2022-11-06T19:16:13.347Z,11.57
2022-11-06T19:21:16.296Z,11.30
2022-11-06T19:26:30.608Z,12.77
2022-11-06T19:44:22.019Z,13.20
2022-11-06T19:56:27.258Z,17.67
2022-11-06T20:08:10.343Z,14.97
2022-11-06T20:13:13.175Z,15.20
2022-11-06T20:18:08.165Z,15.53
2022-11-06T20:23:03.416Z,14.57
2022-11-06T20:27:59.633Z,18.60
2022-11-06T20:33:00.000Z,12.97
2022-11-06T20:44:57.028Z,13.23
2022-11-06T20:49:50.426Z,12.60
2022-11-06T20:54:48.234Z,16.80
2022-11-06T20:59:45.676Z,18.30
2022-11-06T21:04:41.973Z,10.57
2022-11-06T21:09:37.961Z,10.03
2022-11-06T21:14:31.517Z,9.53
2022-11-06T21:19:29.784Z,9.10
2022-11-06T21:24:23.304Z,8.90
2022-11-06T21:29:16.743Z,9.23
2022-11-06T21:34:10.193Z,9.13
2022-11-06T21:39:09.030Z,9.47
2022-11-06T21:44:03.999Z,8.97
2022-11-06T21:48:58.258Z,9.20
2022-11-06T21:54:13.044Z,11.87
2022-11-06T21:59:11.580Z,9.30
2022-11-06T22:04:05.712Z,10.93
2022-11-06T22:09:01.574Z,10.47
2022-11-06T22:13:57.417Z,19.07
2022-11-06T22:18:52.952Z,15.07
2022-11-06T22:23:46.687Z,22.17
2022-11-06T22:28:40.451Z,13.40
2022-11-06T22:33:35.165Z,13.47
2022-11-06T22:38:29.877Z,11.93
2022-11-06T22:43:23.203Z,10.60
2022-11-06T22:48:16.637Z,10.90
2022-11-06T22:53:14.830Z,9.63
2022-11-06T22:58:09.950Z,9.03
2022-11-06T23:03:03.633Z,9.63
2022-11-06T23:07:57.651Z,9.30
2022-11-06T23:12:50.964Z,9.47
2022-11-06T23:17:45.633Z,9.77
2022-11-06T23:22:38.885Z,10.10
2022-11-06T23:27:32.554Z,10.20
2022-11-06T23:32:25.816Z,10.20
2022-11-06T23:37:21.131Z,9.50
2022-11-06T23:42:15.842Z,8.83
2022-11-06T23:47:09.104Z,12.07
2022-11-06T23:52:02.681Z,10.37
2022-11-06T23:56:57.365Z,9.20
